sensor_id;sensor_type;location;lat;lon;timestamp;pressure;altitude;pressure_sealevel;temperature;humidity
4705;BME280;2366;51.332;6.610;2023-03-19T00:02:02;101000.06;;;14.48;96.04
4705;BME280;2366;51.332;6.610;2023-03-19T00:04:27;101004.16;;;14.41;95.57
4705;BME280;2366;51.332;6.610;2023-03-19T00:06:53;101001.09;;;14.34;95.94
4705;BME280;2366;51.332;6.610;2023-03-19T00:09:19;101009.44;;;14.29;95.96
4705;BME280;2366;51.332;6.610;2023-03-19T00:11:47;101014.22;;;14.24;95.95
4705;BME280;2366;51.332;6.610;2023-03-19T00:14:13;101004.47;;;14.12;96.07
4705;BME280;2366;51.332;6.610;2023-03-19T00:16:39;101016.00;;;14.00;95.19
4705;BME280;2366;51.332;6.610;2023-03-19T00:19:05;101016.09;;;13.98;96.24
4705;BME280;2366;51.332;6.610;2023-03-19T00:21:30;100998.81;;;14.04;95.79
4705;BME280;2366;51.332;6.610;2023-03-19T00:23:56;101002.31;;;14.17;97.63
4705;BME280;2366;51.332;6.610;2023-03-19T00:26:26;100992.88;;;14.24;97.62
4705;BME280;2366;51.332;6.610;2023-03-19T00:28:52;100986.28;;;14.30;97.71
4705;BME280;2366;51.332;6.610;2023-03-19T00:31:18;100986.03;;;14.33;97.88
4705;BME280;2366;51.332;6.610;2023-03-19T00:33:43;100999.31;;;14.22;97.01
4705;BME280;2366;51.332;6.610;2023-03-19T00:36:09;101007.44;;;14.07;95.55
4705;BME280;2366;51.332;6.610;2023-03-19T00:38:35;101014.06;;;14.02;96.16
4705;BME280;2366;51.332;6.610;2023-03-19T00:41:02;101005.66;;;13.82;96.20
4705;BME280;2366;51.332;6.610;2023-03-19T00:43:27;101006.59;;;13.81;96.56
4705;BME280;2366;51.332;6.610;2023-03-19T00:45:53;101004.16;;;13.78;94.93
4705;BME280;2366;51.332;6.610;2023-03-19T00:48:19;101007.16;;;13.73;96.34
4705;BME280;2366;51.332;6.610;2023-03-19T00:50:46;100988.84;;;13.69;96.24
4705;BME280;2366;51.332;6.610;2023-03-19T00:53:11;100994.59;;;13.63;96.79
4705;BME280;2366;51.332;6.610;2023-03-19T00:55:37;100998.41;;;13.59;96.64
4705;BME280;2366;51.332;6.610;2023-03-19T00:58:02;100992.56;;;13.53;96.58
4705;BME280;2366;51.332;6.610;2023-03-19T01:00:27;100990.00;;;13.52;96.85
4705;BME280;2366;51.332;6.610;2023-03-19T01:02:53;100999.50;;;13.43;96.40
4705;BME280;2366;51.332;6.610;2023-03-19T01:05:19;100996.16;;;13.40;96.14
4705;BME280;2366;51.332;6.610;2023-03-19T01:07:44;101001.06;;;13.33;96.09
4705;BME280;2366;51.332;6.610;2023-03-19T01:10:10;100998.91;;;13.25;95.82
4705;BME280;2366;51.332;6.610;2023-03-19T01:12:35;101006.47;;;13.19;96.18
4705;BME280;2366;51.332;6.610;2023-03-19T01:15:01;101006.31;;;13.07;96.12
4705;BME280;2366;51.332;6.610;2023-03-19T01:17:27;101001.94;;;13.06;95.87
4705;BME280;2366;51.332;6.610;2023-03-19T01:19:52;101009.09;;;13.06;95.88
4705;BME280;2366;51.332;6.610;2023-03-19T01:22:17;101007.81;;;13.11;96.19
4705;BME280;2366;51.332;6.610;2023-03-19T01:24:43;100998.88;;;13.12;96.32
4705;BME280;2366;51.332;6.610;2023-03-19T01:27:08;100986.09;;;13.18;96.03
4705;BME280;2366;51.332;6.610;2023-03-19T01:29:34;100978.66;;;13.23;96.41
4705;BME280;2366;51.332;6.610;2023-03-19T01:32:00;100982.66;;;13.30;97.37
4705;BME280;2366;51.332;6.610;2023-03-19T01:34:25;100988.09;;;13.41;97.15
4705;BME280;2366;51.332;6.610;2023-03-19T01:36:51;100986.16;;;13.43;96.98
4705;BME280;2366;51.332;6.610;2023-03-19T01:39:17;100989.34;;;13.48;96.36
4705;BME280;2366;51.332;6.610;2023-03-19T01:41:42;100988.19;;;13.52;96.83
4705;BME280;2366;51.332;6.610;2023-03-19T01:44:28;100987.88;;;13.57;95.62
4705;BME280;2366;51.332;6.610;2023-03-19T01:46:55;100986.69;;;13.61;95.81
4705;BME280;2366;51.332;6.610;2023-03-19T01:49:22;100990.84;;;13.65;96.22
4705;BME280;2366;51.332;6.610;2023-03-19T01:51:48;100988.72;;;13.70;94.44
4705;BME280;2366;51.332;6.610;2023-03-19T01:54:17;100993.19;;;13.70;95.01
4705;BME280;2366;51.332;6.610;2023-03-19T01:56:45;100996.19;;;13.78;94.42
4705;BME280;2366;51.332;6.610;2023-03-19T01:59:22;100988.69;;;13.83;94.04
4705;BME280;2366;51.332;6.610;2023-03-19T02:01:55;100989.75;;;13.93;93.18
4705;BME280;2366;51.332;6.610;2023-03-19T02:04:22;100992.50;;;14.05;92.17
4705;BME280;2366;51.332;6.610;2023-03-19T02:06:48;100997.41;;;14.11;91.41
4705;BME280;2366;51.332;6.610;2023-03-19T02:09:14;100985.38;;;14.05;89.65
4705;BME280;2366;51.332;6.610;2023-03-19T02:11:42;100994.00;;;14.09;89.68
4705;BME280;2366;51.332;6.610;2023-03-19T02:14:08;100989.31;;;14.12;89.30
4705;BME280;2366;51.332;6.610;2023-03-19T02:16:34;100988.47;;;14.12;87.72
4705;BME280;2366;51.332;6.610;2023-03-19T02:18:59;100985.56;;;14.15;88.17
4705;BME280;2366;51.332;6.610;2023-03-19T02:21:25;100980.22;;;14.15;86.55
4705;BME280;2366;51.332;6.610;2023-03-19T02:24:11;100983.41;;;14.20;85.64
4705;BME280;2366;51.332;6.610;2023-03-19T02:26:39;100982.34;;;14.23;85.29
4705;BME280;2366;51.332;6.610;2023-03-19T02:29:06;100971.47;;;14.26;84.19
4705;BME280;2366;51.332;6.610;2023-03-19T02:31:31;100971.97;;;14.31;83.88
4705;BME280;2366;51.332;6.610;2023-03-19T02:34:03;100965.56;;;14.33;83.19
4705;BME280;2366;51.332;6.610;2023-03-19T02:36:35;100965.38;;;14.24;82.03
4705;BME280;2366;51.332;6.610;2023-03-19T02:39:03;100965.56;;;14.33;81.50
4705;BME280;2366;51.332;6.610;2023-03-19T02:41:30;100976.97;;;14.35;80.89
4705;BME280;2366;51.332;6.610;2023-03-19T02:43:57;100964.59;;;14.34;80.48
4705;BME280;2366;51.332;6.610;2023-03-19T02:46:24;100967.28;;;14.34;80.37
4705;BME280;2366;51.332;6.610;2023-03-19T02:48:49;100975.03;;;14.37;79.86
4705;BME280;2366;51.332;6.610;2023-03-19T02:51:14;100973.84;;;14.42;79.73
4705;BME280;2366;51.332;6.610;2023-03-19T02:53:40;100970.22;;;14.43;79.71
4705;BME280;2366;51.332;6.610;2023-03-19T02:56:06;100978.97;;;14.45;79.46
4705;BME280;2366;51.332;6.610;2023-03-19T02:58:31;100980.56;;;14.47;79.04
4705;BME280;2366;51.332;6.610;2023-03-19T03:00:57;100980.91;;;14.43;78.53
4705;BME280;2366;51.332;6.610;2023-03-19T03:03:22;100980.66;;;14.46;78.80
4705;BME280;2366;51.332;6.610;2023-03-19T03:05:47;100984.06;;;14.48;78.75
4705;BME280;2366;51.332;6.610;2023-03-19T03:08:13;100978.97;;;14.45;77.86
4705;BME280;2366;51.332;6.610;2023-03-19T03:10:38;100978.22;;;14.43;78.55
4705;BME280;2366;51.332;6.610;2023-03-19T03:13:04;100982.59;;;14.44;78.32
4705;BME280;2366;51.332;6.610;2023-03-19T03:15:29;100983.78;;;14.39;77.61
4705;BME280;2366;51.332;6.610;2023-03-19T03:17:55;100987.19;;;14.42;77.99
4705;BME280;2366;51.332;6.610;2023-03-19T03:20:21;100988.38;;;14.37;77.18
4705;BME280;2366;51.332;6.610;2023-03-19T03:22:46;100994.91;;;14.33;77.54
4705;BME280;2366;51.332;6.610;2023-03-19T03:25:13;100991.16;;;14.36;77.57
4705;BME280;2366;51.332;6.610;2023-03-19T03:27:38;100984.75;;;14.38;77.56
4705;BME280;2366;51.332;6.610;2023-03-19T03:30:05;100994.91;;;14.33;77.40
4705;BME280;2366;51.332;6.610;2023-03-19T03:32:32;101000.25;;;14.33;77.21
4705;BME280;2366;51.332;6.610;2023-03-19T03:34:57;100996.84;;;14.31;76.93
4705;BME280;2366;51.332;6.610;2023-03-19T03:37:23;100997.28;;;14.25;76.94
4705;BME280;2366;51.332;6.610;2023-03-19T03:39:48;101000.59;;;14.16;76.82
4705;BME280;2366;51.332;6.610;2023-03-19T03:42:13;101003.59;;;14.11;76.72
4705;BME280;2366;51.332;6.610;2023-03-19T03:44:39;101000.91;;;14.11;76.76
4705;BME280;2366;51.332;6.610;2023-03-19T03:47:05;101001.13;;;14.21;76.70
4705;BME280;2366;51.332;6.610;2023-03-19T03:49:30;101003.34;;;14.27;76.72
4705;BME280;2366;51.332;6.610;2023-03-19T03:51:56;101003.97;;;14.31;76.50
4705;BME280;2366;51.332;6.610;2023-03-19T03:54:21;101015.91;;;14.38;76.15
4705;BME280;2366;51.332;6.610;2023-03-19T03:56:47;101013.84;;;14.42;75.63
4705;BME280;2366;51.332;6.610;2023-03-19T03:59:14;101008.19;;;14.46;75.28
4705;BME280;2366;51.332;6.610;2023-03-19T04:01:39;101014.38;;;14.47;74.78
4705;BME280;2366;51.332;6.610;2023-03-19T04:04:05;101010.31;;;14.54;74.98
4705;BME280;2366;51.332;6.610;2023-03-19T04:06:30;101012.03;;;14.55;74.44
4705;BME280;2366;51.332;6.610;2023-03-19T04:08:56;101012.22;;;14.52;74.42
4705;BME280;2366;51.332;6.610;2023-03-19T04:11:21;101006.91;;;14.52;73.89
4705;BME280;2366;51.332;6.610;2023-03-19T04:13:47;101012.97;;;14.54;73.85
4705;BME280;2366;51.332;6.610;2023-03-19T04:16:12;101012.03;;;14.55;73.70
4705;BME280;2366;51.332;6.610;2023-03-19T04:18:39;101010.84;;;14.59;73.31
4705;BME280;2366;51.332;6.610;2023-03-19T04:21:05;101018.84;;;14.59;72.87
4705;BME280;2366;51.332;6.610;2023-03-19T04:23:30;101018.41;;;14.65;73.18
4705;BME280;2366;51.332;6.610;2023-03-19T04:26:00;101022.53;;;14.69;72.99
4705;BME280;2366;51.332;6.610;2023-03-19T04:28:27;101028.72;;;14.70;72.63
4705;BME280;2366;51.332;6.610;2023-03-19T04:31:04;101029.72;;;14.69;72.46
4705;BME280;2366;51.332;6.610;2023-03-19T04:33:30;101030.44;;;14.71;72.33
4705;BME280;2366;51.332;6.610;2023-03-19T04:35:56;101032.03;;;14.73;72.02
4705;BME280;2366;51.332;6.610;2023-03-19T04:38:22;101042.47;;;14.76;72.09
4705;BME280;2366;51.332;6.610;2023-03-19T04:40:48;101036.19;;;14.77;71.98
4705;BME280;2366;51.332;6.610;2023-03-19T04:43:13;101035.19;;;14.78;72.17
4705;BME280;2366;51.332;6.610;2023-03-19T04:45:40;101040.53;;;14.78;71.79
4705;BME280;2366;51.332;6.610;2023-03-19T04:48:06;101038.59;;;14.81;72.08
4705;BME280;2366;51.332;6.610;2023-03-19T04:50:31;101043.59;;;14.85;72.07
4705;BME280;2366;51.332;6.610;2023-03-19T04:52:57;101043.50;;;14.87;71.76
4705;BME280;2366;51.332;6.610;2023-03-19T04:55:22;101039.00;;;14.87;71.57
4705;BME280;2366;51.332;6.610;2023-03-19T04:57:48;101049.53;;;14.77;71.50
4705;BME280;2366;51.332;6.610;2023-03-19T05:00:13;101042.25;;;14.79;71.51
4705;BME280;2366;51.332;6.610;2023-03-19T05:02:40;101054.88;;;14.77;71.37
4705;BME280;2366;51.332;6.610;2023-03-19T05:05:07;101045.03;;;14.78;71.24
4705;BME280;2366;51.332;6.610;2023-03-19T05:07:33;101057.53;;;14.77;71.23
4705;BME280;2366;51.332;6.610;2023-03-19T05:09:58;101057.28;;;14.81;71.23
4705;BME280;2366;51.332;6.610;2023-03-19T05:12:24;101056.00;;;14.86;70.90
4705;BME280;2366;51.332;6.610;2023-03-19T05:14:50;101058.56;;;14.88;70.89
4705;BME280;2366;51.332;6.610;2023-03-19T05:17:15;101057.81;;;14.86;70.89
4705;BME280;2366;51.332;6.610;2023-03-19T05:19:41;101064.44;;;14.80;70.75
4705;BME280;2366;51.332;6.610;2023-03-19T05:22:07;101065.75;;;14.74;71.32
4705;BME280;2366;51.332;6.610;2023-03-19T05:24:33;101066.44;;;14.65;71.38
4705;BME280;2366;51.332;6.610;2023-03-19T05:26:58;101069.66;;;14.57;72.24
4705;BME280;2366;51.332;6.610;2023-03-19T05:29:24;101065.38;;;14.55;72.45
4705;BME280;2366;51.332;6.610;2023-03-19T05:31:50;101063.91;;;14.51;72.77
4705;BME280;2366;51.332;6.610;2023-03-19T05:34:16;101064.00;;;14.49;73.21
4705;BME280;2366;51.332;6.610;2023-03-19T05:36:41;101068.59;;;14.47;73.47
4705;BME280;2366;51.332;6.610;2023-03-19T05:39:06;101071.75;;;14.52;73.54
4705;BME280;2366;51.332;6.610;2023-03-19T05:41:32;101068.25;;;14.52;73.84
4705;BME280;2366;51.332;6.610;2023-03-19T05:43:57;101064.94;;;14.48;74.06
4705;BME280;2366;51.332;6.610;2023-03-19T05:46:23;101068.78;;;14.44;74.22
4705;BME280;2366;51.332;6.610;2023-03-19T05:48:49;101069.88;;;14.42;74.24
4705;BME280;2366;51.332;6.610;2023-03-19T05:51:14;101081.28;;;14.44;74.69
4705;BME280;2366;51.332;6.610;2023-03-19T05:53:40;101078.41;;;14.47;74.72
4705;BME280;2366;51.332;6.610;2023-03-19T05:56:06;101085.22;;;14.51;74.80
4705;BME280;2366;51.332;6.610;2023-03-19T05:58:31;101085.09;;;14.52;74.98
4705;BME280;2366;51.332;6.610;2023-03-19T06:00:57;101084.69;;;14.58;74.79
4705;BME280;2366;51.332;6.610;2023-03-19T06:03:22;101082.66;;;14.62;74.61
4705;BME280;2366;51.332;6.610;2023-03-19T06:05:51;101089.59;;;14.65;74.49
4705;BME280;2366;51.332;6.610;2023-03-19T06:08:17;101082.97;;;14.70;74.70
4705;BME280;2366;51.332;6.610;2023-03-19T06:10:43;101090.63;;;14.75;74.62
4705;BME280;2366;51.332;6.610;2023-03-19T06:13:08;101103.09;;;14.74;74.29
4705;BME280;2366;51.332;6.610;2023-03-19T06:15:34;101104.72;;;14.77;74.51
4705;BME280;2366;51.332;6.610;2023-03-19T06:17:59;101093.91;;;14.78;74.43
4705;BME280;2366;51.332;6.610;2023-03-19T06:20:25;101099.06;;;14.82;74.29
4705;BME280;2366;51.332;6.610;2023-03-19T06:22:50;101094.16;;;14.75;74.08
4705;BME280;2366;51.332;6.610;2023-03-19T06:25:16;101103.25;;;14.73;73.93
4705;BME280;2366;51.332;6.610;2023-03-19T06:27:41;101103.09;;;14.74;74.24
4705;BME280;2366;51.332;6.610;2023-03-19T06:30:07;101107.00;;;14.70;74.05
4705;BME280;2366;51.332;6.610;2023-03-19T06:32:34;101108.38;;;14.63;74.21
4705;BME280;2366;51.332;6.610;2023-03-19T06:35:00;101111.88;;;14.64;74.32
4705;BME280;2366;51.332;6.610;2023-03-19T06:37:25;101108.38;;;14.63;74.23
4705;BME280;2366;51.332;6.610;2023-03-19T06:39:51;101118.31;;;14.61;74.35
4705;BME280;2366;51.332;6.610;2023-03-19T06:42:19;101122.34;;;14.67;74.59
4705;BME280;2366;51.332;6.610;2023-03-19T06:44:44;101128.09;;;14.73;74.75
4705;BME280;2366;51.332;6.610;2023-03-19T06:47:10;101121.78;;;14.74;74.55
4705;BME280;2366;51.332;6.610;2023-03-19T06:49:35;101119.66;;;14.79;74.45
4705;BME280;2366;51.332;6.610;2023-03-19T06:52:01;101128.91;;;14.87;74.28
4705;BME280;2366;51.332;6.610;2023-03-19T06:54:27;101123.38;;;14.90;73.93
4705;BME280;2366;51.332;6.610;2023-03-19T06:56:52;101120.22;;;14.96;74.02
4705;BME280;2366;51.332;6.610;2023-03-19T06:59:18;101127.44;;;15.07;73.65
4705;BME280;2366;51.332;6.610;2023-03-19T07:01:43;101120.22;;;15.20;73.62
4705;BME280;2366;51.332;6.610;2023-03-19T07:04:08;101125.06;;;15.39;73.58
4705;BME280;2366;51.332;6.610;2023-03-19T07:06:35;101118.34;;;15.57;72.99
4705;BME280;2366;51.332;6.610;2023-03-19T07:09:00;101129.47;;;15.75;72.93
4705;BME280;2366;51.332;6.610;2023-03-19T07:11:26;101134.00;;;15.86;71.92
4705;BME280;2366;51.332;6.610;2023-03-19T07:13:51;101138.63;;;16.07;71.93
4705;BME280;2366;51.332;6.610;2023-03-19T07:16:17;101141.72;;;16.25;71.50
4705;BME280;2366;51.332;6.610;2023-03-19T07:18:42;101149.00;;;16.34;71.20
4705;BME280;2366;51.332;6.610;2023-03-19T07:21:08;101148.38;;;16.41;70.96
4705;BME280;2366;51.332;6.610;2023-03-19T07:23:33;101149.94;;;17.44;70.71
4705;BME280;2366;51.332;6.610;2023-03-19T07:25:58;101140.75;;;17.58;67.59
4705;BME280;2366;51.332;6.610;2023-03-19T07:28:24;101157.16;;;17.32;67.79
4705;BME280;2366;51.332;6.610;2023-03-19T07:30:52;101158.81;;;17.12;67.58
4705;BME280;2366;51.332;6.610;2023-03-19T07:33:19;101154.09;;;16.93;67.82
4705;BME280;2366;51.332;6.610;2023-03-19T07:35:45;101153.03;;;16.84;67.74
4705;BME280;2366;51.332;6.610;2023-03-19T07:38:10;101163.16;;;16.81;68.61
4705;BME280;2366;51.332;6.610;2023-03-19T07:40:36;101170.06;;;16.83;68.29
4705;BME280;2366;51.332;6.610;2023-03-19T07:43:02;101167.03;;;16.88;68.33
4705;BME280;2366;51.332;6.610;2023-03-19T07:45:28;101165.91;;;16.91;68.10
4705;BME280;2366;51.332;6.610;2023-03-19T07:47:53;101166.91;;;16.90;68.07
4705;BME280;2366;51.332;6.610;2023-03-19T07:50:19;101169.22;;;16.83;67.36
4705;BME280;2366;51.332;6.610;2023-03-19T07:52:46;101156.91;;;16.80;68.04
4705;BME280;2366;51.332;6.610;2023-03-19T07:55:13;101161.88;;;16.74;67.62
4705;BME280;2366;51.332;6.610;2023-03-19T07:57:39;101171.03;;;16.82;67.80
4705;BME280;2366;51.332;6.610;2023-03-19T08:00:05;101180.16;;;16.91;67.62
4705;BME280;2366;51.332;6.610;2023-03-19T08:02:30;101180.38;;;16.99;67.38
4705;BME280;2366;51.332;6.610;2023-03-19T08:04:56;101176.34;;;17.16;66.88
4705;BME280;2366;51.332;6.610;2023-03-19T08:07:22;101175.19;;;17.62;66.48
4705;BME280;2366;51.332;6.610;2023-03-19T08:09:48;101177.03;;;21.45;60.16
4705;BME280;2366;51.332;6.610;2023-03-19T08:12:13;101185.22;;;24.33;49.45
4705;BME280;2366;51.332;6.610;2023-03-19T08:14:38;101185.34;;;24.72;46.45
4705;BME280;2366;51.332;6.610;2023-03-19T08:17:04;101188.78;;;26.66;43.12
4705;BME280;2366;51.332;6.610;2023-03-19T08:19:29;101183.25;;;24.74;43.63
4705;BME280;2366;51.332;6.610;2023-03-19T08:21:56;101185.06;;;22.51;48.00
4705;BME280;2366;51.332;6.610;2023-03-19T08:24:21;101184.84;;;21.74;51.54
4705;BME280;2366;51.332;6.610;2023-03-19T08:26:47;101183.06;;;21.47;51.80
4705;BME280;2366;51.332;6.610;2023-03-19T08:29:12;101195.41;;;22.98;48.33
4705;BME280;2366;51.332;6.610;2023-03-19T08:31:38;101186.00;;;22.15;49.63
4705;BME280;2366;51.332;6.610;2023-03-19T08:34:03;101186.25;;;21.42;51.28
4705;BME280;2366;51.332;6.610;2023-03-19T08:36:30;101185.34;;;21.24;52.30
4705;BME280;2366;51.332;6.610;2023-03-19T08:38:56;101178.56;;;21.47;52.08
4705;BME280;2366;51.332;6.610;2023-03-19T08:41:23;101187.94;;;20.98;53.18
4705;BME280;2366;51.332;6.610;2023-03-19T08:43:49;101186.84;;;20.63;54.03
4705;BME280;2366;51.332;6.610;2023-03-19T08:46:15;101188.03;;;20.31;54.47
4705;BME280;2366;51.332;6.610;2023-03-19T08:48:41;101189.25;;;19.89;56.07
4705;BME280;2366;51.332;6.610;2023-03-19T08:51:06;101187.84;;;19.76;57.12
4705;BME280;2366;51.332;6.610;2023-03-19T08:53:32;101186.09;;;19.36;56.90
4705;BME280;2366;51.332;6.610;2023-03-19T08:56:02;101192.53;;;19.04;58.60
4705;BME280;2366;51.332;6.610;2023-03-19T08:58:28;101195.44;;;18.81;58.66
4705;BME280;2366;51.332;6.610;2023-03-19T09:01:00;101194.81;;;18.68;60.20
4705;BME280;2366;51.332;6.610;2023-03-19T09:03:27;101198.22;;;18.70;60.51
4705;BME280;2366;51.332;6.610;2023-03-19T09:05:52;101203.22;;;18.84;60.84
4705;BME280;2366;51.332;6.610;2023-03-19T09:08:17;101207.56;;;19.06;60.40
4705;BME280;2366;51.332;6.610;2023-03-19T09:10:43;101204.75;;;19.18;60.31
4705;BME280;2366;51.332;6.610;2023-03-19T09:13:08;101216.03;;;19.02;59.16
4705;BME280;2366;51.332;6.610;2023-03-19T09:15:33;101214.00;;;18.63;60.19
4705;BME280;2366;51.332;6.610;2023-03-19T09:17:59;101210.38;;;18.43;61.12
4705;BME280;2366;51.332;6.610;2023-03-19T09:20:24;101214.22;;;18.51;60.85
4705;BME280;2366;51.332;6.610;2023-03-19T09:22:50;101220.22;;;18.85;61.26
4705;BME280;2366;51.332;6.610;2023-03-19T09:25:15;101215.66;;;19.26;59.70
4705;BME280;2366;51.332;6.610;2023-03-19T09:27:41;101229.69;;;19.49;57.53
4705;BME280;2366;51.332;6.610;2023-03-19T09:30:07;101232.91;;;19.23;57.83
4705;BME280;2366;51.332;6.610;2023-03-19T09:32:34;101232.50;;;18.87;58.89
4705;BME280;2366;51.332;6.610;2023-03-19T09:35:00;101234.19;;;18.58;59.84
4705;BME280;2366;51.332;6.610;2023-03-19T09:37:25;101244.19;;;18.56;59.22
4705;BME280;2366;51.332;6.610;2023-03-19T09:39:51;101233.09;;;18.39;60.23
4705;BME280;2366;51.332;6.610;2023-03-19T09:45:14;101239.50;;;19.09;59.24
4705;BME280;2366;51.332;6.610;2023-03-19T09:47:42;101229.28;;;19.44;58.22
4705;BME280;2366;51.332;6.610;2023-03-19T09:50:23;101232.97;;;19.53;56.79
4705;BME280;2366;51.332;6.610;2023-03-19T09:53:02;101234.66;;;19.54;56.75
4705;BME280;2366;51.332;6.610;2023-03-19T09:55:41;101236.94;;;19.58;56.65
4705;BME280;2366;51.332;6.610;2023-03-19T09:58:19;101235.34;;;19.46;56.54
4705;BME280;2366;51.332;6.610;2023-03-19T10:00:48;101242.72;;;19.44;56.55
4705;BME280;2366;51.332;6.610;2023-03-19T10:11:47;101243.69;;;19.43;56.67
4705;BME280;2366;51.332;6.610;2023-03-19T10:17:19;101245.41;;;19.44;56.17
4705;BME280;2366;51.332;6.610;2023-03-19T10:20:03;101247.91;;;19.26;56.80
4705;BME280;2366;51.332;6.610;2023-03-19T10:25:48;101253.81;;;18.58;58.36
4705;BME280;2366;51.332;6.610;2023-03-19T10:28:18;101250.03;;;18.61;59.01
4705;BME280;2366;51.332;6.610;2023-03-19T10:31:52;101256.06;;;19.05;57.50
4705;BME280;2366;51.332;6.610;2023-03-19T10:34:00;101258.75;;;19.75;57.16
4705;BME280;2366;51.332;6.610;2023-03-19T10:36:34;101256.22;;;19.83;55.84
4705;BME280;2366;51.332;6.610;2023-03-19T10:39:00;101259.06;;;19.81;55.62
4705;BME280;2366;51.332;6.610;2023-03-19T10:44:20;101260.72;;;20.41;54.50
4705;BME280;2366;51.332;6.610;2023-03-19T10:46:49;101255.19;;;20.89;53.50
4705;BME280;2366;51.332;6.610;2023-03-19T10:49:15;101247.69;;;20.83;53.00
4705;BME280;2366;51.332;6.610;2023-03-19T10:51:47;101252.78;;;20.39;51.88
4705;BME280;2366;51.332;6.610;2023-03-19T10:54:24;101253.50;;;20.22;52.83
4705;BME280;2366;51.332;6.610;2023-03-19T10:56:50;101264.41;;;20.30;53.48
4705;BME280;2366;51.332;6.610;2023-03-19T10:59:24;101265.53;;;20.27;52.28
4705;BME280;2366;51.332;6.610;2023-03-19T11:02:13;101262.88;;;20.18;51.80
4705;BME280;2366;51.332;6.610;2023-03-19T11:04:39;101265.56;;;19.88;50.82
4705;BME280;2366;51.332;6.610;2023-03-19T11:07:10;101271.69;;;19.40;49.82
4705;BME280;2366;51.332;6.610;2023-03-19T11:09:41;101269.25;;;19.27;50.49
4705;BME280;2366;51.332;6.610;2023-03-19T11:12:18;101270.56;;;19.33;50.89
4705;BME280;2366;51.332;6.610;2023-03-19T11:14:46;101261.50;;;19.34;51.04
4705;BME280;2366;51.332;6.610;2023-03-19T11:17:20;101266.31;;;19.31;51.00
4705;BME280;2366;51.332;6.610;2023-03-19T11:19:57;101269.44;;;19.36;51.31
4705;BME280;2366;51.332;6.610;2023-03-19T11:22:27;101269.72;;;19.42;51.55
4705;BME280;2366;51.332;6.610;2023-03-19T11:25:40;101273.41;;;19.51;51.86
4705;BME280;2366;51.332;6.610;2023-03-19T11:27:39;101261.59;;;19.73;51.52
4705;BME280;2366;51.332;6.610;2023-03-19T11:30:25;101273.50;;;20.09;50.45
4705;BME280;2366;51.332;6.610;2023-03-19T11:35:41;101264.97;;;20.43;48.81
4705;BME280;2366;51.332;6.610;2023-03-19T11:41:15;101267.50;;;20.25;48.41
4705;BME280;2366;51.332;6.610;2023-03-19T11:43:45;101270.66;;;20.21;48.11
4705;BME280;2366;51.332;6.610;2023-03-19T11:46:35;101273.06;;;19.95;47.88
4705;BME280;2366;51.332;6.610;2023-03-19T11:54:43;101270.94;;;19.79;48.83
4705;BME280;2366;51.332;6.610;2023-03-19T11:57:11;101261.59;;;19.73;49.35
4705;BME280;2366;51.332;6.610;2023-03-19T12:08:14;101261.69;;;20.49;47.68
4705;BME280;2366;51.332;6.610;2023-03-19T12:10:54;101261.06;;;20.75;46.80
4705;BME280;2366;51.332;6.610;2023-03-19T12:13:57;101265.06;;;20.99;46.78
4705;BME280;2366;51.332;6.610;2023-03-19T12:16:40;101264.78;;;21.29;45.73
4705;BME280;2366;51.332;6.610;2023-03-19T12:27:53;101257.94;;;21.07;45.75
4705;BME280;2366;51.332;6.610;2023-03-19T12:30:41;101262.00;;;20.84;47.13
4705;BME280;2366;51.332;6.610;2023-03-19T12:36:02;101264.03;;;21.09;46.71
4705;BME280;2366;51.332;6.610;2023-03-19T12:38:44;101255.59;;;21.22;45.94
4705;BME280;2366;51.332;6.610;2023-03-19T12:41:32;101247.50;;;21.22;45.17
4705;BME280;2366;51.332;6.610;2023-03-19T12:44:04;101251.59;;;21.26;45.12
4705;BME280;2366;51.332;6.610;2023-03-19T12:46:37;101246.78;;;21.30;45.32
4705;BME280;2366;51.332;6.610;2023-03-19T12:52:07;101245.25;;;20.90;46.02
4705;BME280;2366;51.332;6.610;2023-03-19T12:54:39;101243.22;;;21.02;45.95
4705;BME280;2366;51.332;6.610;2023-03-19T12:57:10;101249.47;;;20.65;46.77
4705;BME280;2366;51.332;6.610;2023-03-19T12:59:56;101249.44;;;20.75;47.01
4705;BME280;2366;51.332;6.610;2023-03-19T13:02:41;101246.47;;;21.05;45.53
4705;BME280;2366;51.332;6.610;2023-03-19T13:08:02;101258.00;;;20.98;45.19
4705;BME280;2366;51.332;6.610;2023-03-19T13:10:31;101240.63;;;20.82;45.81
4705;BME280;2366;51.332;6.610;2023-03-19T13:12:57;101245.50;;;20.69;46.64
4705;BME280;2366;51.332;6.610;2023-03-19T13:15:29;101260.41;;;20.63;46.52
4705;BME280;2366;51.332;6.610;2023-03-19T13:18:07;101266.47;;;20.56;47.23
4705;BME280;2366;51.332;6.610;2023-03-19T13:23:27;101263.28;;;20.03;48.91
4705;BME280;2366;51.332;6.610;2023-03-19T13:25:55;101265.28;;;19.92;49.54
4705;BME280;2366;51.332;6.610;2023-03-19T13:28:33;101255.38;;;19.73;49.98
4705;BME280;2366;51.332;6.610;2023-03-19T13:31:03;101261.13;;;19.58;50.19
4705;BME280;2366;51.332;6.610;2023-03-19T13:33:30;101263.22;;;19.45;50.56
4705;BME280;2366;51.332;6.610;2023-03-19T13:36:00;101257.53;;;19.28;50.56
4705;BME280;2366;51.332;6.610;2023-03-19T13:38:36;101257.38;;;19.20;51.21
4705;BME280;2366;51.332;6.610;2023-03-19T13:41:04;101257.97;;;19.34;51.37
4705;BME280;2366;51.332;6.610;2023-03-19T13:46:04;101258.31;;;19.09;52.04
4705;BME280;2366;51.332;6.610;2023-03-19T13:48:50;101252.47;;;18.95;52.47
4705;BME280;2366;51.332;6.610;2023-03-19T13:56:31;101253.19;;;18.97;53.43
4705;BME280;2366;51.332;6.610;2023-03-19T14:01:42;101258.03;;;19.03;53.16
4705;BME280;2366;51.332;6.610;2023-03-19T14:04:18;101253.91;;;18.99;53.37
4705;BME280;2366;51.332;6.610;2023-03-19T14:06:50;101259.88;;;19.02;53.25
4705;BME280;2366;51.332;6.610;2023-03-19T14:14:51;101270.56;;;18.93;55.64
4705;BME280;2366;51.332;6.610;2023-03-19T14:17:30;101262.38;;;18.73;56.72
4705;BME280;2366;51.332;6.610;2023-03-19T14:25:53;101254.69;;;18.38;58.08
4705;BME280;2366;51.332;6.610;2023-03-19T14:28:26;101261.09;;;18.46;58.19
4705;BME280;2366;51.332;6.610;2023-03-19T14:30:56;101254.09;;;18.55;57.96
4705;BME280;2366;51.332;6.610;2023-03-19T14:33:35;101261.44;;;18.53;57.27
4705;BME280;2366;51.332;6.610;2023-03-19T14:36:04;101260.59;;;18.53;56.80
4705;BME280;2366;51.332;6.610;2023-03-19T14:38:37;101260.78;;;18.61;56.49